Time;durP1;ratioP1;P1;durP2;ratioP2;P2;SDS_P1;SDS_P2;PMS_P1;PMS_P2;Temp;Humidity;BMP_temperature;BMP_pressure;BME280_temperature;BME280_humidity;BME280_pressure;Samples;Min_cycle;Max_cycle;Signal;HPM_P1;HPM_P2
2022/01/03 00:01:20;;;;;;;347.40;39.67;;;5.10;99.90;;;;;;4206127;28;20265;-56
2022/01/03 00:03:21;;;;;;;220.77;37.33;;;5.10;99.90;;;;;;4207569;28;20081;-55
2022/01/03 00:05:23;;;;;;;191.37;34.40;;;5.00;99.90;;;;;;4206561;28;20296;-55
2022/01/03 00:07:25;;;;;;;82.40;31.10;;;5.00;99.90;;;;;;4207667;28;20028;-57
2022/01/03 00:09:27;;;;;;;61.27;25.57;;;5.10;99.90;;;;;;4206166;28;20310;-55
2022/01/03 00:11:28;;;;;;;49.63;20.17;;;5.10;99.90;;;;;;4207549;28;20268;-57
2022/01/03 00:13:29;;;;;;;46.10;18.93;;;5.10;99.90;;;;;;4206373;28;20081;-54
2022/01/03 00:15:31;;;;;;;45.97;20.40;;;5.00;99.90;;;;;;4207422;28;20268;-55
2022/01/03 00:17:32;;;;;;;49.73;19.83;;;5.10;99.90;;;;;;4206437;28;20277;-55
2022/01/03 00:19:33;;;;;;;48.53;19.80;;;5.10;99.90;;;;;;4207207;28;20280;-57
2022/01/03 00:21:43;;;;;;;52.13;20.07;;;5.00;99.90;;;;;;4205943;28;20326;-56
2022/01/03 00:24:01;;;;;;;46.40;20.08;;;5.00;99.90;;;;;;4206296;28;20265;-54
2022/01/03 00:26:03;;;;;;;45.33;17.60;;;5.00;99.90;;;;;;4205780;28;20097;-53
2022/01/03 00:28:14;;;;;;;45.70;18.50;;;5.00;99.90;;;;;;4208114;28;20248;-54
2022/01/03 00:30:19;;;;;;;43.00;18.30;;;4.90;99.90;;;;;;4206194;28;20265;-52
2022/01/03 00:32:22;;;;;;;50.07;19.50;;;4.90;99.90;;;;;;4207218;28;20272;-56
2022/01/03 00:34:27;;;;;;;50.30;19.90;;;4.90;99.90;;;;;;4206154;28;20798;-53
2022/01/03 00:36:29;;;;;;;58.13;19.13;;;4.90;99.90;;;;;;4207220;28;20273;-58
2022/01/03 00:38:33;;;;;;;46.47;18.13;;;4.90;99.90;;;;;;4206370;28;20298;-55
2022/01/03 00:40:35;;;;;;;45.37;17.53;;;4.90;99.90;;;;;;4206235;28;20277;-55
2022/01/03 00:42:36;;;;;;;38.30;17.03;;;4.90;99.90;;;;;;4206817;28;20288;-51
2022/01/03 00:44:37;;;;;;;40.87;14.67;;;4.90;99.90;;;;;;4205678;28;20330;-56
2022/01/03 00:46:39;;;;;;;31.90;14.27;;;4.90;99.90;;;;;;4205614;28;20265;-53
2022/01/03 00:48:41;;;;;;;38.70;15.67;;;4.80;99.90;;;;;;4206208;28;20269;-54
2022/01/03 00:50:42;;;;;;;38.87;13.33;;;4.80;99.90;;;;;;4207357;28;20253;-55
2022/01/03 00:52:45;;;;;;;35.70;14.43;;;4.80;99.90;;;;;;4205831;28;20302;-52
2022/01/03 00:54:46;;;;;;;38.13;13.63;;;4.80;99.90;;;;;;4207516;28;20318;-53
2022/01/03 00:56:54;;;;;;;37.30;14.23;;;4.80;99.90;;;;;;4206011;28;20326;-55
2022/01/03 00:59:09;;;;;;;30.17;12.67;;;4.80;99.90;;;;;;4207143;28;20726;-54
2022/01/03 01:01:11;;;;;;;34.20;13.03;;;4.70;99.90;;;;;;4205788;28;20671;-54
2022/01/03 01:03:33;;;;;;;29.00;12.70;;;4.70;99.90;;;;;;4207020;28;20501;-53
2022/01/03 01:05:35;;;;;;;35.27;13.30;;;4.70;99.90;;;;;;4205899;28;21127;-54
2022/01/03 01:07:39;;;;;;;30.23;12.03;;;4.70;99.90;;;;;;4207198;28;20722;-53
2022/01/03 01:09:41;;;;;;;25.17;11.27;;;4.70;99.90;;;;;;4205577;28;20757;-55
2022/01/03 01:11:44;;;;;;;31.37;13.30;;;4.70;99.90;;;;;;4207113;28;20311;-54
2022/01/03 01:13:46;;;;;;;27.57;11.90;;;4.70;99.90;;;;;;4205899;28;20666;-54
2022/01/03 01:15:49;;;;;;;26.90;11.57;;;4.60;99.90;;;;;;4207200;28;20295;-52
2022/01/03 01:17:53;;;;;;;31.40;12.33;;;4.70;99.90;;;;;;4205947;28;20264;-53
2022/01/03 01:19:57;;;;;;;28.37;12.53;;;4.70;99.90;;;;;;4206653;28;20268;-51
2022/01/03 01:21:58;;;;;;;27.33;11.70;;;4.70;99.90;;;;;;4206209;28;20788;-58
2022/01/03 01:23:59;;;;;;;27.43;11.13;;;4.70;99.90;;;;;;4206492;28;20337;-54
2022/01/03 01:28:21;;;;;;;23.83;9.85;;;4.70;99.90;;;;;;4206986;28;20325;-55
2022/01/03 01:30:27;;;;;;;25.57;11.47;;;4.70;99.90;;;;;;4206551;28;21031;-55
2022/01/03 01:32:28;;;;;;;24.17;11.03;;;4.70;99.90;;;;;;4205085;28;20268;-52
2022/01/03 01:34:31;;;;;;;33.77;13.67;;;4.70;99.90;;;;;;4206216;28;20257;-54
2022/01/03 01:36:33;;;;;;;25.03;10.87;;;4.70;99.90;;;;;;4208773;28;20264;-54
2022/01/03 01:38:38;;;;;;;28.33;12.10;;;4.80;99.90;;;;;;4210013;28;20265;-51
2022/01/03 01:40:50;;;;;;;26.27;10.50;;;4.80;99.90;;;;;;4208938;28;20264;-55
2022/01/03 01:42:54;;;;;;;36.30;13.67;;;4.80;99.90;;;;;;4210052;28;20342;-51
2022/01/03 01:44:59;;;;;;;30.67;12.93;;;4.90;99.90;;;;;;4208640;28;20281;-56
2022/01/03 01:47:04;;;;;;;31.07;14.10;;;4.90;99.90;;;;;;4209937;28;20040;-55
2022/01/03 01:49:05;;;;;;;28.87;12.27;;;4.90;99.90;;;;;;4208578;28;20101;-55
2022/01/03 01:51:09;;;;;;;24.53;11.10;;;4.90;99.90;;;;;;4209823;28;20058;-58
2022/01/03 01:53:13;;;;;;;37.57;11.70;;;4.90;99.90;;;;;;4208536;28;20256;-57
2022/01/03 01:55:14;;;;;;;28.80;11.00;;;4.80;99.90;;;;;;4209903;28;20288;-56
2022/01/03 01:57:19;;;;;;;27.40;11.70;;;4.80;99.90;;;;;;4208732;28;20334;-54
2022/01/03 02:00:02;;;;;;;26.70;11.40;;;4.80;99.90;;;;;;4209442;28;20306;-56
2022/01/03 02:02:06;;;;;;;28.50;11.53;;;4.80;99.90;;;;;;4207993;28;20330;-51
2022/01/03 02:04:34;;;;;;;26.00;11.53;;;4.80;99.90;;;;;;4209596;28;20272;-54
2022/01/03 02:06:50;;;;;;;30.23;11.67;;;4.80;99.90;;;;;;4203764;28;20277;-57
2022/01/03 02:09:07;;;;;;;28.77;12.23;;;4.80;99.90;;;;;;4209420;28;20410;-53
2022/01/03 02:11:30;;;;;;;32.73;12.97;;;4.80;99.90;;;;;;4208545;28;20272;-53
2022/01/03 02:13:33;;;;;;;27.03;11.90;;;4.80;99.90;;;;;;4208739;28;20733;-56
2022/01/03 02:15:37;;;;;;;28.63;11.20;;;4.90;99.90;;;;;;4207093;28;20322;-56
2022/01/03 02:17:39;;;;;;;36.40;12.07;;;4.90;99.90;;;;;;4209317;28;20086;-54
2022/01/03 02:19:40;;;;;;;27.20;11.23;;;4.90;99.90;;;;;;4208162;28;20322;-53
2022/01/03 02:21:42;;;;;;;57.70;12.97;;;4.80;99.90;;;;;;4207792;28;20442;-54
2022/01/03 02:23:43;;;;;;;46.00;12.87;;;4.80;99.90;;;;;;4207857;28;20998;-53
2022/01/03 02:25:44;;;;;;;39.07;12.37;;;4.80;99.90;;;;;;4208815;28;20055;-54
2022/01/03 02:27:48;;;;;;;39.33;12.13;;;4.80;99.90;;;;;;4208516;28;20350;-54
2022/01/03 02:29:50;;;;;;;31.03;12.57;;;4.80;99.90;;;;;;4208805;28;20268;-57
2022/01/03 02:31:51;;;;;;;98.27;15.40;;;4.70;99.90;;;;;;4207573;28;20669;-55
2022/01/03 02:33:52;;;;;;;32.37;11.60;;;4.70;99.90;;;;;;4209046;28;20321;-51
2022/01/03 02:35:53;;;;;;;52.13;13.43;;;4.70;99.90;;;;;;4208033;28;20451;-53
2022/01/03 02:37:55;;;;;;;32.83;12.73;;;4.70;99.90;;;;;;4209038;28;20288;-53
2022/01/03 02:39:56;;;;;;;42.00;12.50;;;4.60;99.90;;;;;;4207905;28;20249;-51
2022/01/03 02:41:57;;;;;;;37.13;13.30;;;4.60;99.90;;;;;;4208696;28;20269;-55
2022/01/03 02:43:59;;;;;;;35.77;13.07;;;4.60;99.90;;;;;;4208213;28;20832;-51
2022/01/03 02:46:00;;;;;;;51.47;13.03;;;4.60;99.90;;;;;;4208107;28;20265;-54
2022/01/03 02:48:04;;;;;;;45.07;12.87;;;4.60;99.90;;;;;;4207871;28;20256;-52
2022/01/03 02:50:07;;;;;;;36.87;12.17;;;4.60;99.90;;;;;;4207695;28;20610;-55
2022/01/03 02:52:09;;;;;;;27.60;11.17;;;4.60;99.90;;;;;;4208265;28;20281;-52
2022/01/03 02:54:10;;;;;;;41.23;11.63;;;4.60;99.90;;;;;;4207497;28;20829;-55
2022/01/03 02:56:11;;;;;;;26.40;11.40;;;4.60;99.90;;;;;;4208473;28;20714;-54
2022/01/03 02:58:13;;;;;;;35.00;12.20;;;4.60;99.90;;;;;;4207681;28;20261;-52
2022/01/03 03:00:20;;;;;;;25.10;11.17;;;4.50;99.90;;;;;;4208772;28;20269;-53
2022/01/03 03:02:23;;;;;;;26.17;11.63;;;4.50;99.90;;;;;;4207388;28;20264;-57
2022/01/03 03:04:24;;;;;;;27.03;11.40;;;4.50;99.90;;;;;;4208327;28;20337;-53
2022/01/03 03:06:28;;;;;;;28.80;11.93;;;4.50;99.90;;;;;;4207273;28;20269;-54
2022/01/03 03:08:29;;;;;;;28.80;12.47;;;4.50;99.90;;;;;;4208550;28;20667;-52
2022/01/03 03:10:30;;;;;;;28.70;12.03;;;4.60;99.90;;;;;;4206928;28;20268;-56
2022/01/03 03:12:31;;;;;;;27.83;12.43;;;4.50;99.90;;;;;;4208127;28;20298;-52
2022/01/03 03:14:32;;;;;;;28.60;12.57;;;4.50;99.90;;;;;;4207361;28;20298;-53
2022/01/03 03:16:34;;;;;;;34.67;13.30;;;4.60;99.90;;;;;;4207937;28;20256;-53
2022/01/03 03:18:35;;;;;;;57.53;13.03;;;4.50;99.90;;;;;;4207699;28;20323;-58
2022/01/03 03:20:37;;;;;;;29.90;12.30;;;4.50;99.90;;;;;;4207435;28;20256;-54
2022/01/03 03:22:39;;;;;;;34.57;13.93;;;4.50;99.90;;;;;;4208136;28;20687;-57
2022/01/03 03:24:40;;;;;;;26.50;12.23;;;4.50;99.90;;;;;;4206853;28;23169;-56
2022/01/03 03:26:41;;;;;;;86.77;13.97;;;4.50;99.90;;;;;;4208223;28;20421;-54
2022/01/03 03:28:42;;;;;;;35.77;11.67;;;4.50;99.90;;;;;;4207068;28;20306;-60
2022/01/03 03:30:46;;;;;;;39.23;12.27;;;4.50;99.90;;;;;;4208236;28;20261;-53
2022/01/03 03:32:50;;;;;;;47.13;11.23;;;4.50;99.90;;;;;;4206725;28;20269;-55
2022/01/03 03:34:51;;;;;;;33.77;11.77;;;4.50;99.90;;;;;;4208530;28;20810;-54
2022/01/03 03:36:52;;;;;;;55.67;13.67;;;4.40;99.90;;;;;;4206750;28;20253;-55
2022/01/03 03:38:53;;;;;;;49.03;12.63;;;4.40;99.90;;;;;;4208287;28;20253;-53
2022/01/03 03:40:57;;;;;;;41.23;11.60;;;4.40;99.90;;;;;;4206937;28;20794;-55
2022/01/03 03:42:58;;;;;;;35.10;11.17;;;4.30;99.90;;;;;;4207768;28;20300;-56
2022/01/03 03:45:00;;;;;;;45.07;11.73;;;4.30;99.90;;;;;;4206491;28;20786;-51
2022/01/03 03:47:03;;;;;;;36.97;11.20;;;4.30;99.90;;;;;;4207695;28;20264;-52
2022/01/03 03:49:06;;;;;;;34.20;12.97;;;4.20;99.90;;;;;;4206838;28;20269;-55
2022/01/03 03:51:07;;;;;;;33.97;11.83;;;4.20;99.90;;;;;;4207334;28;20683;-55
2022/01/03 03:53:09;;;;;;;27.60;11.03;;;4.20;99.90;;;;;;4207426;28;20318;-53
2022/01/03 03:55:10;;;;;;;39.97;11.03;;;4.20;99.90;;;;;;4206583;28;20651;-51
2022/01/03 03:57:12;;;;;;;41.67;12.03;;;4.20;99.90;;;;;;4207793;28;20764;-56
2022/01/03 03:59:13;;;;;;;127.07;17.73;;;4.20;99.90;;;;;;4206654;28;20253;-53
2022/01/03 04:01:14;;;;;;;77.10;14.30;;;4.10;99.90;;;;;;4207465;28;20845;-52
2022/01/03 04:03:15;;;;;;;63.97;13.03;;;4.10;99.90;;;;;;4206324;28;20353;-56
2022/01/03 04:05:16;;;;;;;64.10;12.80;;;4.00;99.90;;;;;;4207614;28;21149;-59
2022/01/03 04:07:18;;;;;;;78.23;18.40;;;4.00;99.90;;;;;;4206742;28;20322;-54
2022/01/03 04:09:19;;;;;;;77.23;15.37;;;4.00;99.90;;;;;;4207693;28;20325;-56
2022/01/03 04:11:20;;;;;;;36.13;11.80;;;4.00;99.90;;;;;;4206671;28;20273;-55
2022/01/03 04:13:21;;;;;;;60.20;12.30;;;4.00;99.90;;;;;;4207671;28;20306;-51
2022/01/03 04:15:22;;;;;;;102.50;14.23;;;4.00;99.90;;;;;;4206193;28;20318;-54
2022/01/03 04:17:23;;;;;;;65.47;12.83;;;4.00;99.90;;;;;;4207123;28;20772;-54
2022/01/03 04:19:25;;;;;;;62.53;12.67;;;4.00;99.90;;;;;;4206215;28;20253;-57
2022/01/03 04:21:27;;;;;;;62.33;12.07;;;3.90;99.90;;;;;;4207432;28;20268;-56
2022/01/03 04:23:28;;;;;;;84.57;14.83;;;3.90;99.90;;;;;;4206505;28;20346;-54
2022/01/03 04:25:29;;;;;;;93.43;13.77;;;3.90;99.90;;;;;;4206331;28;20326;-57
2022/01/03 04:27:30;;;;;;;139.80;13.90;;;3.90;99.90;;;;;;4207036;28;20253;-55
2022/01/03 04:29:31;;;;;;;190.67;19.57;;;3.80;99.90;;;;;;4205898;28;20257;-54
2022/01/03 04:31:33;;;;;;;124.43;15.43;;;3.80;99.90;;;;;;4207519;28;20265;-56
2022/01/03 04:33:34;;;;;;;126.43;17.17;;;3.80;99.90;;;;;;4206212;28;20269;-55
2022/01/03 04:35:35;;;;;;;74.63;13.67;;;3.80;99.90;;;;;;4207447;28;20810;-56
2022/01/03 04:37:37;;;;;;;204.70;22.23;;;3.80;99.90;;;;;;4206029;28;20334;-57
2022/01/03 04:39:38;;;;;;;140.03;18.03;;;3.80;99.90;;;;;;4206957;28;20275;-53
2022/01/03 04:41:39;;;;;;;88.33;13.83;;;3.80;99.90;;;;;;4206238;28;20820;-53
2022/01/03 04:43:41;;;;;;;126.27;17.30;;;3.80;99.90;;;;;;4206912;28;20345;-50
2022/01/03 04:45:42;;;;;;;49.27;12.07;;;3.80;99.90;;;;;;4206090;28;20322;-57
2022/01/03 04:47:43;;;;;;;56.20;12.33;;;3.70;99.90;;;;;;4206722;28;20277;-54
2022/01/03 04:49:44;;;;;;;98.67;16.00;;;3.70;99.90;;;;;;4205872;28;20297;-55
2022/01/03 04:51:45;;;;;;;177.20;17.17;;;3.70;99.90;;;;;;4206665;28;20260;-54
2022/01/03 04:53:47;;;;;;;85.70;15.70;;;3.70;99.90;;;;;;4206451;28;20341;-56
2022/01/03 04:55:48;;;;;;;44.17;11.80;;;3.70;99.90;;;;;;4206220;28;20268;-55
2022/01/03 04:57:50;;;;;;;51.73;12.17;;;3.80;99.90;;;;;;4207126;28;20784;-56
2022/01/03 04:59:51;;;;;;;39.20;12.13;;;3.70;99.90;;;;;;4205498;28;20264;-57
2022/01/03 05:01:52;;;;;;;34.33;11.33;;;3.70;99.90;;;;;;4206244;28;20264;-53
2022/01/03 05:03:53;;;;;;;43.17;11.57;;;3.70;99.90;;;;;;4205912;28;20297;-52
2022/01/03 05:05:55;;;;;;;40.83;12.47;;;3.70;99.90;;;;;;4206999;28;20663;-56
2022/01/03 05:07:56;;;;;;;56.90;11.30;;;3.70;99.90;;;;;;4205768;28;20310;-54
2022/01/03 05:09:57;;;;;;;38.97;12.30;;;3.60;99.90;;;;;;4208190;28;20264;-55
2022/01/03 05:11:58;;;;;;;34.80;11.93;;;3.70;99.90;;;;;;4208847;28;20273;-55
2022/01/03 05:13:59;;;;;;;54.40;13.77;;;3.70;99.90;;;;;;4210014;28;20655;-54
2022/01/03 05:16:01;;;;;;;31.93;11.53;;;3.70;99.90;;;;;;4208139;28;20264;-58
2022/01/03 05:18:03;;;;;;;26.97;11.10;;;3.70;99.90;;;;;;4209926;28;20269;-52
2022/01/03 05:20:05;;;;;;;34.20;12.10;;;3.70;99.90;;;;;;4208351;28;21040;-56
2022/01/03 05:22:06;;;;;;;39.33;13.17;;;3.70;99.90;;;;;;4209526;28;20269;-54
2022/01/03 05:24:07;;;;;;;38.43;12.47;;;3.80;99.90;;;;;;4208554;28;20345;-57
2022/01/03 05:26:08;;;;;;;34.93;11.60;;;3.80;99.90;;;;;;4209096;28;20284;-56
2022/01/03 05:28:10;;;;;;;41.60;12.47;;;3.80;99.90;;;;;;4209887;28;20265;-53
2022/01/03 05:30:11;;;;;;;39.93;13.00;;;3.80;99.90;;;;;;4208385;28;20261;-56
2022/01/03 05:32:13;;;;;;;30.10;12.23;;;3.80;99.90;;;;;;4209175;28;20264;-51
2022/01/03 05:34:15;;;;;;;35.97;12.83;;;3.80;99.90;;;;;;4208293;28;20284;-56
2022/01/03 05:36:16;;;;;;;40.90;11.77;;;3.70;99.90;;;;;;4209744;28;21086;-55
2022/01/03 05:38:17;;;;;;;40.43;12.00;;;3.70;99.90;;;;;;4208472;28;20269;-57
2022/01/03 05:40:18;;;;;;;47.53;13.13;;;3.70;99.90;;;;;;4209773;28;20354;-56
2022/01/03 05:42:19;;;;;;;71.77;13.40;;;3.60;99.90;;;;;;4208381;28;20260;-55
2022/01/03 05:44:20;;;;;;;58.07;12.70;;;3.60;99.90;;;;;;4209056;28;20365;-56
2022/01/03 05:46:22;;;;;;;54.73;13.80;;;3.50;99.90;;;;;;4208322;28;20318;-54
2022/01/03 05:48:23;;;;;;;61.10;16.47;;;3.50;99.90;;;;;;4208609;28;20303;-50
2022/01/03 05:50:24;;;;;;;35.87;13.20;;;3.60;99.90;;;;;;4208659;28;20319;-56
2022/01/03 05:52:25;;;;;;;72.77;16.10;;;3.60;99.90;;;;;;4209541;28;20341;-58
2022/01/03 05:54:27;;;;;;;43.40;15.70;;;3.60;99.90;;;;;;4208430;28;20312;-52
2022/01/03 05:56:28;;;;;;;51.17;19.17;;;3.60;99.90;;;;;;4209242;28;20265;-52
2022/01/03 05:58:29;;;;;;;50.83;16.07;;;3.60;99.90;;;;;;4209386;28;20318;-55
2022/01/03 06:00:30;;;;;;;61.43;14.20;;;3.60;99.90;;;;;;4207996;28;20310;-54
2022/01/03 06:02:36;;;;;;;56.70;12.83;;;3.60;99.90;;;;;;4209489;28;20245;-56
2022/01/03 06:04:54;;;;;;;44.87;12.43;;;3.60;99.90;;;;;;4208057;28;20281;-56
2022/01/03 06:07:09;;;;;;;56.83;11.10;;;3.60;99.90;;;;;;4209121;28;20730;-57
2022/01/03 06:09:10;;;;;;;33.07;12.13;;;3.60;99.90;;;;;;4208240;28;20272;-56
2022/01/03 06:11:11;;;;;;;28.40;11.53;;;3.60;99.90;;;;;;4209189;28;20837;-54
2022/01/03 06:13:13;;;;;;;36.77;14.10;;;3.60;99.90;;;;;;4208428;28;20852;-55
2022/01/03 06:15:15;;;;;;;47.63;15.77;;;3.70;99.90;;;;;;4209228;28;20683;-56
2022/01/03 06:17:17;;;;;;;92.87;29.47;;;3.70;99.90;;;;;;4207759;28;20845;-51
2022/01/03 06:19:19;;;;;;;83.17;29.23;;;3.70;99.90;;;;;;4209109;28;21133;-55
2022/01/03 06:21:20;;;;;;;59.80;24.53;;;3.70;99.90;;;;;;4205999;28;20749;-54
2022/01/03 06:23:22;;;;;;;49.67;19.33;;;3.80;99.90;;;;;;4209260;28;20337;-57
2022/01/03 06:25:23;;;;;;;47.93;15.83;;;3.90;99.90;;;;;;4207878;28;20833;-60
2022/01/03 06:27:24;;;;;;;37.40;14.27;;;3.90;99.90;;;;;;4209109;28;20326;-56
2022/01/03 06:29:25;;;;;;;34.27;13.57;;;3.90;99.90;;;;;;4207963;28;20265;-57
2022/01/03 06:31:26;;;;;;;45.37;15.97;;;3.90;99.90;;;;;;4208786;28;20319;-55
2022/01/03 06:33:27;;;;;;;37.40;15.03;;;3.90;99.90;;;;;;4207743;28;20334;-57
2022/01/03 06:35:29;;;;;;;36.83;15.03;;;4.00;99.90;;;;;;4208100;28;20748;-59
2022/01/03 06:37:30;;;;;;;38.57;16.33;;;4.00;99.90;;;;;;4208135;28;20743;-54
2022/01/03 06:39:31;;;;;;;46.83;16.70;;;4.00;99.90;;;;;;4206721;28;20786;-57
2022/01/03 06:41:33;;;;;;;43.30;17.20;;;4.00;99.90;;;;;;4207830;28;20256;-58
2022/01/03 06:43:35;;;;;;;36.97;16.43;;;4.00;99.90;;;;;;4206771;28;20311;-53
2022/01/03 06:45:37;;;;;;;35.90;15.00;;;4.00;99.90;;;;;;4208051;28;20302;-58
2022/01/03 06:47:38;;;;;;;31.40;14.17;;;4.00;99.90;;;;;;4207062;28;20321;-55
2022/01/03 06:49:39;;;;;;;29.57;13.53;;;4.10;99.90;;;;;;4208801;28;20322;-57
2022/01/03 06:51:41;;;;;;;32.53;14.07;;;4.10;99.90;;;;;;4207243;28;20338;-52
2022/01/03 06:53:42;;;;;;;30.43;12.53;;;4.10;99.90;;;;;;4208824;28;20273;-54
2022/01/03 06:55:43;;;;;;;39.23;14.53;;;4.10;99.90;;;;;;4186106;28;20297;-52
2022/01/03 06:57:45;;;;;;;47.50;18.97;;;4.10;99.90;;;;;;4191957;28;20274;-59
2022/01/03 06:59:46;;;;;;;61.90;26.67;;;4.10;99.90;;;;;;4190276;28;20297;-57
2022/01/03 07:01:47;;;;;;;33.27;12.87;;;4.10;99.90;;;;;;4191907;28;20310;-56
2022/01/03 07:03:48;;;;;;;25.23;9.07;;;4.00;99.90;;;;;;4190000;28;20696;-56
2022/01/03 07:05:50;;;;;;;20.20;9.87;;;3.90;99.90;;;;;;4191343;28;20626;-54
2022/01/03 07:07:51;;;;;;;23.57;9.67;;;3.70;99.90;;;;;;4191287;28;20246;-57
2022/01/03 07:09:52;;;;;;;24.27;9.70;;;3.70;99.90;;;;;;4190135;28;20343;-58
2022/01/03 07:11:53;;;;;;;20.10;8.50;;;3.60;99.90;;;;;;4191074;28;20269;-60
2022/01/03 07:14:05;;;;;;;18.40;8.87;;;3.60;99.90;;;;;;4190536;28;20330;-61
2022/01/03 07:20:47;;;;;;;22.80;10.47;;;3.50;99.90;;;;;;4190705;28;20323;-57
2022/01/03 07:22:48;;;;;;;28.77;11.20;;;3.60;99.90;;;;;;4190574;28;20331;-53
2022/01/03 07:24:51;;;;;;;29.50;12.00;;;3.60;99.90;;;;;;4190077;28;20298;-51
2022/01/03 07:26:52;;;;;;;23.43;11.30;;;3.60;99.90;;;;;;4188417;28;20690;-60
2022/01/03 07:28:54;;;;;;;48.20;12.57;;;3.60;99.90;;;;;;4191295;28;21070;-60
2022/01/03 07:30:55;;;;;;;27.97;11.43;;;3.70;99.90;;;;;;4189811;28;20273;-56
2022/01/03 07:32:56;;;;;;;34.20;11.50;;;3.70;99.90;;;;;;4190995;28;20779;-61
2022/01/03 07:34:57;;;;;;;29.87;11.70;;;3.70;99.90;;;;;;4189921;28;20383;-61
2022/01/03 07:36:58;;;;;;;42.13;12.80;;;3.80;99.90;;;;;;4191067;28;20680;-61
2022/01/03 07:38:59;;;;;;;39.53;13.43;;;3.80;99.90;;;;;;4189963;28;20744;-58
2022/01/03 07:41:00;;;;;;;25.97;11.13;;;3.80;99.90;;;;;;4191483;28;20265;-58
2022/01/03 07:43:02;;;;;;;30.50;13.43;;;3.90;99.90;;;;;;4189893;28;20595;-57
2022/01/03 07:45:03;;;;;;;30.20;13.57;;;3.90;99.90;;;;;;4191035;28;21087;-58
2022/01/03 07:47:06;;;;;;;28.80;13.53;;;3.90;99.90;;;;;;4189362;28;20355;-61
2022/01/03 07:49:07;;;;;;;36.43;14.23;;;4.00;99.90;;;;;;4190868;28;20273;-60
2022/01/03 07:51:08;;;;;;;35.57;15.67;;;4.00;99.90;;;;;;4190016;28;20295;-61
2022/01/03 07:53:09;;;;;;;46.83;15.93;;;4.00;99.90;;;;;;4190474;28;20253;-60
2022/01/03 07:55:12;;;;;;;45.10;17.17;;;4.00;99.90;;;;;;4190087;28;20278;-57
2022/01/03 07:57:14;;;;;;;43.20;16.30;;;4.00;99.90;;;;;;4190119;28;20269;-58
2022/01/03 07:59:15;;;;;;;34.20;15.40;;;4.00;99.90;;;;;;4191047;28;20274;-59
2022/01/03 08:01:17;;;;;;;33.63;14.60;;;4.00;99.90;;;;;;4189375;28;20898;-61
2022/01/03 08:03:18;;;;;;;41.90;16.90;;;4.00;99.90;;;;;;4190542;28;20265;-61
2022/01/03 08:05:19;;;;;;;38.77;14.73;;;4.00;99.90;;;;;;4189610;28;20265;-58
2022/01/03 08:07:20;;;;;;;40.43;16.40;;;4.00;99.90;;;;;;4191097;28;20338;-59
2022/01/03 08:09:21;;;;;;;41.60;16.97;;;4.00;99.90;;;;;;4189323;28;20672;-59
2022/01/03 08:11:22;;;;;;;50.87;20.50;;;4.10;99.90;;;;;;4190671;28;20273;-60
2022/01/03 08:13:23;;;;;;;52.67;17.63;;;4.10;99.90;;;;;;4189598;28;20265;-57
2022/01/03 08:15:24;;;;;;;42.03;14.57;;;4.20;99.90;;;;;;4190394;28;20760;-57
2022/01/03 08:17:26;;;;;;;61.43;14.80;;;4.10;99.90;;;;;;4189507;28;20742;-58
2022/01/03 08:19:27;;;;;;;40.10;14.63;;;4.10;99.90;;;;;;4190292;28;20265;-59
2022/01/03 08:21:29;;;;;;;37.87;15.37;;;4.20;99.90;;;;;;4189326;28;20257;-55
2022/01/03 08:23:31;;;;;;;33.27;14.27;;;4.20;99.90;;;;;;4189786;28;20273;-61
2022/01/03 08:25:36;;;;;;;38.23;15.33;;;4.20;99.90;;;;;;4189713;28;20281;-59
2022/01/03 08:27:38;;;;;;;53.93;16.00;;;4.30;99.90;;;;;;4189761;28;20836;-58
2022/01/03 08:29:39;;;;;;;41.60;15.07;;;4.30;99.90;;;;;;4190209;28;20648;-60
2022/01/03 08:31:40;;;;;;;38.43;16.13;;;4.30;99.90;;;;;;4189220;28;20423;-53
2022/01/03 08:33:43;;;;;;;38.47;14.73;;;4.40;99.90;;;;;;4189788;28;20273;-58
2022/01/03 08:35:44;;;;;;;36.57;15.17;;;4.40;99.90;;;;;;4189002;28;20729;-60
2022/01/03 08:37:45;;;;;;;39.13;14.63;;;4.40;99.90;;;;;;4190441;28;20684;-60
2022/01/03 08:39:47;;;;;;;35.17;14.33;;;4.40;99.90;;;;;;4189409;28;20265;-59
2022/01/03 08:41:49;;;;;;;35.10;14.00;;;4.50;99.90;;;;;;4190320;28;20335;-59
2022/01/03 08:43:51;;;;;;;36.40;15.80;;;4.50;99.90;;;;;;4189062;28;20289;-57
2022/01/03 08:45:52;;;;;;;36.37;13.83;;;4.50;99.90;;;;;;4190213;28;20281;-58
2022/01/03 08:47:53;;;;;;;36.37;15.90;;;4.50;99.90;;;;;;4189059;28;20330;-58
2022/01/03 08:49:54;;;;;;;37.50;14.67;;;4.50;99.90;;;;;;4190375;28;20315;-57
2022/01/03 08:51:56;;;;;;;40.87;16.20;;;4.50;99.90;;;;;;4189226;28;20261;-60
2022/01/03 08:53:59;;;;;;;35.50;16.43;;;4.60;99.90;;;;;;4190284;28;20269;-61
2022/01/03 08:56:00;;;;;;;44.57;16.70;;;4.60;99.90;;;;;;4189641;28;20307;-57
2022/01/03 08:58:01;;;;;;;44.73;17.97;;;4.70;99.90;;;;;;4189596;28;20688;-58
2022/01/03 09:00:04;;;;;;;39.63;17.93;;;4.70;99.90;;;;;;4190146;28;20716;-59
2022/01/03 09:02:06;;;;;;;46.87;18.50;;;4.70;99.90;;;;;;4189310;28;20274;-58
2022/01/03 09:04:07;;;;;;;43.90;18.33;;;4.70;99.90;;;;;;4189924;28;20683;-57
2022/01/03 09:06:08;;;;;;;42.07;17.00;;;4.70;99.90;;;;;;4188923;28;20319;-61
2022/01/03 09:08:10;;;;;;;44.40;18.13;;;4.70;99.90;;;;;;4189852;28;20269;-57
2022/01/03 09:10:11;;;;;;;43.97;19.13;;;4.60;99.90;;;;;;4188247;28;20684;-55
2022/01/03 09:12:12;;;;;;;48.47;18.63;;;4.50;99.90;;;;;;4189681;28;20338;-57
2022/01/03 09:14:14;;;;;;;43.40;17.43;;;4.60;99.90;;;;;;4188601;28;20587;-58
2022/01/03 09:16:16;;;;;;;57.17;20.00;;;4.60;99.90;;;;;;4189798;28;20327;-57
2022/01/03 09:18:26;;;;;;;47.50;18.13;;;4.60;99.90;;;;;;4188708;28;20277;-59
2022/01/03 09:20:27;;;;;;;43.75;18.15;;;4.60;99.90;;;;;;4190087;28;20331;-57
2022/01/03 09:22:34;;;;;;;49.40;18.10;;;4.80;99.90;;;;;;4188268;28;20090;-54
2022/01/03 09:28:48;;;;;;;43.03;17.70;;;5.00;99.90;;;;;;4188437;28;20394;-60
2022/01/03 09:29:35;;;;;;;;;;;5.00;99.90;;;;;;4191176;28;20811;-57
2022/01/03 09:31:38;;;;;;;42.23;19.93;;;5.00;99.90;;;;;;4188672;28;19954;-55
2022/01/03 09:33:39;;;;;;;44.43;18.93;;;5.10;99.90;;;;;;4189955;28;20025;-58
2022/01/03 09:35:42;;;;;;;42.53;17.73;;;5.20;99.90;;;;;;4188570;28;20611;-58
2022/01/03 09:37:43;;;;;;;37.23;15.30;;;5.20;99.90;;;;;;4190275;28;20318;-59
2022/01/03 09:39:44;;;;;;;35.83;16.00;;;5.30;99.90;;;;;;4188409;28;20767;-57
2022/01/03 09:42:11;;;;;;;26.43;12.70;;;5.30;99.90;;;;;;4189252;28;20310;-56
2022/01/03 09:44:12;;;;;;;24.13;11.33;;;5.30;99.90;;;;;;4188162;28;20368;-58
2022/01/03 09:46:19;;;;;;;26.67;12.30;;;5.40;99.90;;;;;;4190149;28;20273;-58
2022/01/03 09:48:22;;;;;;;24.57;11.33;;;5.50;99.90;;;;;;4188305;28;20745;-59
2022/01/03 09:50:23;;;;;;;21.07;10.53;;;5.60;99.90;;;;;;4189402;28;20304;-59
2022/01/03 09:52:26;;;;;;;20.07;10.53;;;5.70;99.90;;;;;;4188814;28;20318;-58
2022/01/03 09:54:29;;;;;;;18.77;9.57;;;5.90;99.90;;;;;;4189141;28;20278;-58
2022/01/03 09:56:32;;;;;;;21.57;11.37;;;6.00;99.90;;;;;;4190642;28;20025;-59
2022/01/03 09:58:34;;;;;;;24.00;12.00;;;6.20;99.90;;;;;;4191985;28;20510;-58
2022/01/03 10:00:35;;;;;;;21.93;11.23;;;6.40;99.90;;;;;;4192349;28;20045;-58
2022/01/03 10:02:37;;;;;;;20.57;10.57;;;6.70;99.90;;;;;;4191094;28;20597;-59
2022/01/03 10:04:38;;;;;;;18.87;9.97;;;6.80;99.90;;;;;;4187295;28;20567;-57
2022/01/03 10:06:40;;;;;;;24.97;9.30;;;6.80;99.90;;;;;;4174931;28;20784;-58
2022/01/03 10:08:42;;;;;;;15.17;8.57;;;6.90;99.90;;;;;;4176035;28;20049;-60
2022/01/03 10:10:45;;;;;;;14.97;8.27;;;6.90;99.90;;;;;;4175018;28;20033;-58
2022/01/03 10:12:46;;;;;;;18.33;8.90;;;7.00;99.90;;;;;;4175447;28;20032;-57
2022/01/03 10:14:47;;;;;;;19.07;8.53;;;7.00;99.90;;;;;;4174285;28;20099;-60
2022/01/03 10:16:49;;;;;;;16.60;9.33;;;7.10;99.90;;;;;;4176114;28;20033;-58
2022/01/03 10:18:50;;;;;;;18.60;9.33;;;7.00;99.90;;;;;;4174624;28;20059;-58
2022/01/03 10:20:52;;;;;;;20.97;10.47;;;7.10;99.90;;;;;;4175957;28;20431;-59
2022/01/03 10:23:11;;;;;;;19.63;8.63;;;7.20;99.90;;;;;;4174751;28;20033;-63
2022/01/03 10:25:23;;;;;;;18.93;10.00;;;7.30;99.90;;;;;;4175311;28;20057;-60
2022/01/03 10:27:44;;;;;;;16.23;9.00;;;7.40;99.90;;;;;;4174521;28;20029;-59
2022/01/03 10:30:05;;;;;;;17.03;8.90;;;7.50;99.90;;;;;;4176367;28;20450;-57
2022/01/03 10:32:11;;;;;;;17.37;8.20;;;7.60;99.90;;;;;;4174157;28;20033;-59
2022/01/03 10:34:15;;;;;;;25.43;9.33;;;7.70;99.90;;;;;;4175439;28;20480;-59
2022/01/03 10:36:43;;;;;;;20.73;8.70;;;7.80;99.90;;;;;;4206143;28;20089;-60
2022/01/03 10:38:45;;;;;;;10.53;5.37;;;7.90;99.90;;;;;;4173822;28;20099;-57
2022/01/03 10:40:47;;;;;;;10.43;4.87;;;8.20;99.90;;;;;;4180966;28;20086;-57
2022/01/03 10:42:48;;;;;;;6.50;2.97;;;8.50;99.90;;;;;;4191894;28;20098;-56